sensor_id;sensor_type;location;lat;lon;timestamp;P1;durP1;ratioP1;P2;durP2;ratioP2
18084;SDS011;9169;44.492;11.372;2023-07-30T00:00:39;5.43;;;3.07;;
18084;SDS011;9169;44.492;11.372;2023-07-30T00:03:08;6.10;;;3.10;;
18084;SDS011;9169;44.492;11.372;2023-07-30T00:05:36;6.23;;;3.20;;
18084;SDS011;9169;44.492;11.372;2023-07-30T00:08:06;6.60;;;3.30;;
18084;SDS011;9169;44.492;11.372;2023-07-30T00:10:35;6.00;;;3.00;;
18084;SDS011;9169;44.492;11.372;2023-07-30T00:13:04;9.33;;;3.60;;
18084;SDS011;9169;44.492;11.372;2023-07-30T00:15:33;8.07;;;3.53;;
18084;SDS011;9169;44.492;11.372;2023-07-30T00:18:02;7.23;;;3.50;;
18084;SDS011;9169;44.492;11.372;2023-07-30T00:20:30;7.50;;;3.20;;
18084;SDS011;9169;44.492;11.372;2023-07-30T00:22:59;9.00;;;3.77;;
18084;SDS011;9169;44.492;11.372;2023-07-30T00:25:29;6.60;;;3.00;;
18084;SDS011;9169;44.492;11.372;2023-07-30T00:27:56;8.23;;;3.33;;
18084;SDS011;9169;44.492;11.372;2023-07-30T00:30:25;7.40;;;3.40;;
18084;SDS011;9169;44.492;11.372;2023-07-30T00:32:54;6.37;;;3.03;;
18084;SDS011;9169;44.492;11.372;2023-07-30T00:35:22;6.90;;;3.10;;
18084;SDS011;9169;44.492;11.372;2023-07-30T00:37:51;6.40;;;3.50;;
18084;SDS011;9169;44.492;11.372;2023-07-30T00:40:19;8.40;;;3.27;;
18084;SDS011;9169;44.492;11.372;2023-07-30T00:42:49;6.70;;;3.10;;
18084;SDS011;9169;44.492;11.372;2023-07-30T00:45:18;7.07;;;3.17;;
18084;SDS011;9169;44.492;11.372;2023-07-30T00:47:47;7.20;;;3.20;;
18084;SDS011;9169;44.492;11.372;2023-07-30T00:50:17;10.67;;;3.87;;
18084;SDS011;9169;44.492;11.372;2023-07-30T00:52:46;7.83;;;3.60;;
18084;SDS011;9169;44.492;11.372;2023-07-30T00:55:15;6.80;;;3.33;;
18084;SDS011;9169;44.492;11.372;2023-07-30T00:57:44;6.70;;;3.33;;
18084;SDS011;9169;44.492;11.372;2023-07-30T01:00:15;6.57;;;3.10;;
18084;SDS011;9169;44.492;11.372;2023-07-30T01:02:44;6.73;;;3.30;;
18084;SDS011;9169;44.492;11.372;2023-07-30T01:05:12;9.43;;;3.10;;
18084;SDS011;9169;44.492;11.372;2023-07-30T01:07:41;5.87;;;3.00;;
18084;SDS011;9169;44.492;11.372;2023-07-30T01:10:10;8.27;;;3.43;;
18084;SDS011;9169;44.492;11.372;2023-07-30T01:12:38;6.00;;;2.90;;
18084;SDS011;9169;44.492;11.372;2023-07-30T01:15:08;5.67;;;2.73;;
18084;SDS011;9169;44.492;11.372;2023-07-30T01:17:39;6.23;;;3.30;;
18084;SDS011;9169;44.492;11.372;2023-07-30T01:20:08;7.70;;;3.60;;
18084;SDS011;9169;44.492;11.372;2023-07-30T01:22:40;7.33;;;3.50;;
18084;SDS011;9169;44.492;11.372;2023-07-30T01:25:09;6.80;;;3.13;;
18084;SDS011;9169;44.492;11.372;2023-07-30T01:27:39;6.70;;;2.97;;
18084;SDS011;9169;44.492;11.372;2023-07-30T01:30:16;8.00;;;3.50;;
18084;SDS011;9169;44.492;11.372;2023-07-30T01:32:47;7.50;;;3.30;;
18084;SDS011;9169;44.492;11.372;2023-07-30T01:35:19;6.97;;;3.37;;
18084;SDS011;9169;44.492;11.372;2023-07-30T01:37:51;7.60;;;3.03;;
18084;SDS011;9169;44.492;11.372;2023-07-30T01:40:20;9.30;;;3.53;;
18084;SDS011;9169;44.492;11.372;2023-07-30T01:42:50;7.23;;;3.47;;
18084;SDS011;9169;44.492;11.372;2023-07-30T01:45:19;10.33;;;3.33;;
18084;SDS011;9169;44.492;11.372;2023-07-30T01:47:48;8.27;;;3.80;;
18084;SDS011;9169;44.492;11.372;2023-07-30T01:50:16;7.53;;;3.57;;
18084;SDS011;9169;44.492;11.372;2023-07-30T01:52:45;10.03;;;3.97;;
18084;SDS011;9169;44.492;11.372;2023-07-30T01:55:15;9.80;;;4.00;;
18084;SDS011;9169;44.492;11.372;2023-07-30T01:57:44;8.70;;;3.80;;
18084;SDS011;9169;44.492;11.372;2023-07-30T02:00:12;11.03;;;4.80;;
18084;SDS011;9169;44.492;11.372;2023-07-30T02:02:41;12.33;;;4.30;;
18084;SDS011;9169;44.492;11.372;2023-07-30T02:05:10;15.83;;;4.20;;
18084;SDS011;9169;44.492;11.372;2023-07-30T02:07:43;9.60;;;3.67;;
18084;SDS011;9169;44.492;11.372;2023-07-30T02:10:11;10.37;;;3.83;;
18084;SDS011;9169;44.492;11.372;2023-07-30T02:12:41;11.20;;;4.10;;
18084;SDS011;9169;44.492;11.372;2023-07-30T02:15:10;10.20;;;4.50;;
18084;SDS011;9169;44.492;11.372;2023-07-30T02:17:39;14.83;;;4.30;;
18084;SDS011;9169;44.492;11.372;2023-07-30T02:20:08;14.50;;;3.97;;
18084;SDS011;9169;44.492;11.372;2023-07-30T02:22:37;10.13;;;3.97;;
18084;SDS011;9169;44.492;11.372;2023-07-30T02:25:06;11.47;;;4.20;;
18084;SDS011;9169;44.492;11.372;2023-07-30T02:27:35;13.97;;;5.10;;
18084;SDS011;9169;44.492;11.372;2023-07-30T02:30:06;12.10;;;4.43;;
18084;SDS011;9169;44.492;11.372;2023-07-30T02:32:35;15.20;;;4.90;;
18084;SDS011;9169;44.492;11.372;2023-07-30T02:35:04;11.93;;;4.30;;
18084;SDS011;9169;44.492;11.372;2023-07-30T02:37:33;16.43;;;4.87;;
18084;SDS011;9169;44.492;11.372;2023-07-30T02:40:02;12.07;;;3.90;;
18084;SDS011;9169;44.492;11.372;2023-07-30T02:42:31;15.07;;;5.00;;
18084;SDS011;9169;44.492;11.372;2023-07-30T02:45:00;12.87;;;4.57;;
18084;SDS011;9169;44.492;11.372;2023-07-30T02:47:30;12.33;;;4.37;;
18084;SDS011;9169;44.492;11.372;2023-07-30T02:49:59;16.10;;;4.80;;
18084;SDS011;9169;44.492;11.372;2023-07-30T02:52:30;18.70;;;5.37;;
18084;SDS011;9169;44.492;11.372;2023-07-30T02:54:58;13.87;;;3.73;;
18084;SDS011;9169;44.492;11.372;2023-07-30T02:57:27;17.30;;;3.73;;
18084;SDS011;9169;44.492;11.372;2023-07-30T02:59:55;15.73;;;4.00;;
18084;SDS011;9169;44.492;11.372;2023-07-30T03:02:24;13.47;;;4.97;;
18084;SDS011;9169;44.492;11.372;2023-07-30T03:04:54;19.03;;;4.50;;
18084;SDS011;9169;44.492;11.372;2023-07-30T03:07:23;13.20;;;3.17;;
18084;SDS011;9169;44.492;11.372;2023-07-30T03:09:52;16.00;;;3.80;;
18084;SDS011;9169;44.492;11.372;2023-07-30T03:12:21;18.53;;;3.60;;
18084;SDS011;9169;44.492;11.372;2023-07-30T03:14:50;13.70;;;3.37;;
18084;SDS011;9169;44.492;11.372;2023-07-30T03:17:18;16.23;;;4.30;;
18084;SDS011;9169;44.492;11.372;2023-07-30T03:19:47;19.30;;;3.97;;
18084;SDS011;9169;44.492;11.372;2023-07-30T03:22:18;18.10;;;4.23;;
18084;SDS011;9169;44.492;11.372;2023-07-30T03:24:46;14.90;;;4.17;;
18084;SDS011;9169;44.492;11.372;2023-07-30T03:27:15;17.23;;;4.53;;
18084;SDS011;9169;44.492;11.372;2023-07-30T03:29:44;16.97;;;3.90;;
18084;SDS011;9169;44.492;11.372;2023-07-30T03:32:13;20.00;;;4.47;;
18084;SDS011;9169;44.492;11.372;2023-07-30T03:34:41;18.97;;;4.30;;
18084;SDS011;9169;44.492;11.372;2023-07-30T03:37:10;16.33;;;3.70;;
18084;SDS011;9169;44.492;11.372;2023-07-30T03:39:40;17.43;;;4.33;;
18084;SDS011;9169;44.492;11.372;2023-07-30T03:42:09;18.30;;;4.87;;
18084;SDS011;9169;44.492;11.372;2023-07-30T03:44:39;17.20;;;5.20;;
18084;SDS011;9169;44.492;11.372;2023-07-30T03:47:08;16.00;;;4.10;;
18084;SDS011;9169;44.492;11.372;2023-07-30T03:49:37;17.00;;;4.63;;
18084;SDS011;9169;44.492;11.372;2023-07-30T03:52:06;14.40;;;4.30;;
18084;SDS011;9169;44.492;11.372;2023-07-30T03:54:50;16.70;;;4.50;;
18084;SDS011;9169;44.492;11.372;2023-07-30T03:57:18;17.57;;;3.93;;
18084;SDS011;9169;44.492;11.372;2023-07-30T03:59:47;15.90;;;3.80;;
18084;SDS011;9169;44.492;11.372;2023-07-30T04:02:16;19.27;;;3.90;;
18084;SDS011;9169;44.492;11.372;2023-07-30T04:04:44;16.43;;;4.50;;
18084;SDS011;9169;44.492;11.372;2023-07-30T04:07:16;19.10;;;4.53;;
18084;SDS011;9169;44.492;11.372;2023-07-30T04:09:44;17.03;;;4.43;;
18084;SDS011;9169;44.492;11.372;2023-07-30T04:12:17;16.00;;;4.33;;
18084;SDS011;9169;44.492;11.372;2023-07-30T04:14:48;17.57;;;4.20;;
18084;SDS011;9169;44.492;11.372;2023-07-30T04:17:16;19.23;;;4.97;;
18084;SDS011;9169;44.492;11.372;2023-07-30T04:19:48;15.90;;;4.87;;
18084;SDS011;9169;44.492;11.372;2023-07-30T04:22:17;19.90;;;4.30;;
18084;SDS011;9169;44.492;11.372;2023-07-30T04:24:46;19.17;;;4.30;;
18084;SDS011;9169;44.492;11.372;2023-07-30T04:27:14;18.43;;;4.90;;
18084;SDS011;9169;44.492;11.372;2023-07-30T04:29:45;17.00;;;4.60;;
18084;SDS011;9169;44.492;11.372;2023-07-30T04:32:14;20.50;;;5.43;;
18084;SDS011;9169;44.492;11.372;2023-07-30T04:34:42;19.40;;;4.00;;
18084;SDS011;9169;44.492;11.372;2023-07-30T04:37:12;18.30;;;4.80;;
18084;SDS011;9169;44.492;11.372;2023-07-30T04:39:41;18.67;;;5.17;;
18084;SDS011;9169;44.492;11.372;2023-07-30T04:42:09;17.97;;;5.83;;
18084;SDS011;9169;44.492;11.372;2023-07-30T04:44:41;20.07;;;4.60;;
18084;SDS011;9169;44.492;11.372;2023-07-30T04:47:14;18.83;;;5.00;;
18084;SDS011;9169;44.492;11.372;2023-07-30T04:49:43;17.93;;;4.33;;
18084;SDS011;9169;44.492;11.372;2023-07-30T04:52:12;18.97;;;5.20;;
18084;SDS011;9169;44.492;11.372;2023-07-30T04:54:40;19.60;;;4.20;;
18084;SDS011;9169;44.492;11.372;2023-07-30T04:57:10;18.20;;;4.60;;
18084;SDS011;9169;44.492;11.372;2023-07-30T04:59:39;19.63;;;5.10;;
18084;SDS011;9169;44.492;11.372;2023-07-30T05:02:08;23.10;;;5.83;;
18084;SDS011;9169;44.492;11.372;2023-07-30T05:04:38;16.30;;;4.00;;
18084;SDS011;9169;44.492;11.372;2023-07-30T05:07:06;19.50;;;4.47;;
18084;SDS011;9169;44.492;11.372;2023-07-30T05:09:35;17.60;;;5.33;;
18084;SDS011;9169;44.492;11.372;2023-07-30T05:12:05;15.83;;;4.50;;
18084;SDS011;9169;44.492;11.372;2023-07-30T05:14:34;18.17;;;4.93;;
18084;SDS011;9169;44.492;11.372;2023-07-30T05:17:02;22.20;;;5.73;;
18084;SDS011;9169;44.492;11.372;2023-07-30T05:19:31;17.10;;;5.37;;
18084;SDS011;9169;44.492;11.372;2023-07-30T05:22:01;17.13;;;4.80;;
18084;SDS011;9169;44.492;11.372;2023-07-30T05:24:32;16.73;;;4.13;;
18084;SDS011;9169;44.492;11.372;2023-07-30T05:27:00;16.90;;;4.87;;
18084;SDS011;9169;44.492;11.372;2023-07-30T05:29:31;16.53;;;5.07;;
18084;SDS011;9169;44.492;11.372;2023-07-30T05:32:00;17.27;;;4.90;;
18084;SDS011;9169;44.492;11.372;2023-07-30T05:34:28;15.70;;;4.20;;
18084;SDS011;9169;44.492;11.372;2023-07-30T05:36:57;17.03;;;4.93;;
18084;SDS011;9169;44.492;11.372;2023-07-30T05:39:27;24.43;;;6.23;;
18084;SDS011;9169;44.492;11.372;2023-07-30T05:41:56;20.60;;;6.70;;
18084;SDS011;9169;44.492;11.372;2023-07-30T05:44:25;16.47;;;3.97;;
18084;SDS011;9169;44.492;11.372;2023-07-30T05:46:53;15.67;;;4.67;;
18084;SDS011;9169;44.492;11.372;2023-07-30T05:49:22;19.63;;;5.03;;
18084;SDS011;9169;44.492;11.372;2023-07-30T05:51:51;16.60;;;3.70;;
18084;SDS011;9169;44.492;11.372;2023-07-30T05:54:19;21.67;;;7.33;;
18084;SDS011;9169;44.492;11.372;2023-07-30T05:56:51;18.40;;;4.40;;
18084;SDS011;9169;44.492;11.372;2023-07-30T05:59:20;17.50;;;5.50;;
18084;SDS011;9169;44.492;11.372;2023-07-30T06:01:49;22.30;;;4.20;;
18084;SDS011;9169;44.492;11.372;2023-07-30T06:04:17;16.90;;;4.20;;
18084;SDS011;9169;44.492;11.372;2023-07-30T06:06:46;21.27;;;6.73;;
18084;SDS011;9169;44.492;11.372;2023-07-30T06:09:15;20.00;;;5.83;;
18084;SDS011;9169;44.492;11.372;2023-07-30T06:11:43;16.80;;;4.60;;
18084;SDS011;9169;44.492;11.372;2023-07-30T06:14:14;18.37;;;5.40;;
18084;SDS011;9169;44.492;11.372;2023-07-30T06:16:42;18.43;;;4.87;;
18084;SDS011;9169;44.492;11.372;2023-07-30T06:19:11;20.40;;;4.87;;
18084;SDS011;9169;44.492;11.372;2023-07-30T06:21:40;18.00;;;4.67;;
18084;SDS011;9169;44.492;11.372;2023-07-30T06:24:09;18.50;;;7.17;;
18084;SDS011;9169;44.492;11.372;2023-07-30T06:26:37;17.53;;;4.50;;
18084;SDS011;9169;44.492;11.372;2023-07-30T06:29:06;16.80;;;4.90;;
18084;SDS011;9169;44.492;11.372;2023-07-30T06:31:36;20.63;;;5.40;;
18084;SDS011;9169;44.492;11.372;2023-07-30T06:34:05;19.30;;;3.93;;
18084;SDS011;9169;44.492;11.372;2023-07-30T06:36:34;20.13;;;7.73;;
18084;SDS011;9169;44.492;11.372;2023-07-30T06:39:03;18.03;;;5.63;;
18084;SDS011;9169;44.492;11.372;2023-07-30T06:41:31;18.77;;;5.17;;
18084;SDS011;9169;44.492;11.372;2023-07-30T06:44:03;17.70;;;5.80;;
18084;SDS011;9169;44.492;11.372;2023-07-30T06:46:33;17.63;;;4.67;;
18084;SDS011;9169;44.492;11.372;2023-07-30T06:49:06;18.53;;;5.63;;
18084;SDS011;9169;44.492;11.372;2023-07-30T06:51:34;15.90;;;4.40;;
18084;SDS011;9169;44.492;11.372;2023-07-30T06:54:03;18.00;;;4.50;;
18084;SDS011;9169;44.492;11.372;2023-07-30T06:56:32;18.73;;;4.90;;
18084;SDS011;9169;44.492;11.372;2023-07-30T06:59:01;17.80;;;6.00;;
18084;SDS011;9169;44.492;11.372;2023-07-30T07:01:30;21.60;;;9.07;;
18084;SDS011;9169;44.492;11.372;2023-07-30T07:04:00;22.53;;;4.83;;
18084;SDS011;9169;44.492;11.372;2023-07-30T07:06:29;21.33;;;6.00;;
18084;SDS011;9169;44.492;11.372;2023-07-30T07:08:57;17.60;;;7.63;;
18084;SDS011;9169;44.492;11.372;2023-07-30T07:11:26;18.27;;;4.70;;
18084;SDS011;9169;44.492;11.372;2023-07-30T07:13:54;19.13;;;7.07;;
18084;SDS011;9169;44.492;11.372;2023-07-30T07:16:23;21.50;;;9.30;;
18084;SDS011;9169;44.492;11.372;2023-07-30T07:18:52;16.33;;;4.17;;
18084;SDS011;9169;44.492;11.372;2023-07-30T07:21:22;19.40;;;4.57;;
18084;SDS011;9169;44.492;11.372;2023-07-30T07:23:50;19.17;;;5.73;;
18084;SDS011;9169;44.492;11.372;2023-07-30T07:26:19;18.40;;;6.73;;
18084;SDS011;9169;44.492;11.372;2023-07-30T07:28:48;15.37;;;4.57;;
18084;SDS011;9169;44.492;11.372;2023-07-30T07:31:16;17.03;;;5.03;;
18084;SDS011;9169;44.492;11.372;2023-07-30T07:33:45;14.50;;;3.60;;
18084;SDS011;9169;44.492;11.372;2023-07-30T07:36:13;16.70;;;4.50;;
18084;SDS011;9169;44.492;11.372;2023-07-30T07:38:44;14.50;;;4.77;;
18084;SDS011;9169;44.492;11.372;2023-07-30T07:41:13;16.70;;;4.90;;
18084;SDS011;9169;44.492;11.372;2023-07-30T07:43:43;15.87;;;4.60;;
18084;SDS011;9169;44.492;11.372;2023-07-30T07:46:13;18.23;;;5.13;;
18084;SDS011;9169;44.492;11.372;2023-07-30T07:48:43;15.80;;;4.30;;
18084;SDS011;9169;44.492;11.372;2023-07-30T07:51:12;14.43;;;5.30;;
18084;SDS011;9169;44.492;11.372;2023-07-30T07:53:40;16.63;;;4.93;;
18084;SDS011;9169;44.492;11.372;2023-07-30T07:56:11;14.07;;;5.43;;
18084;SDS011;9169;44.492;11.372;2023-07-30T07:58:39;13.00;;;4.10;;
18084;SDS011;9169;44.492;11.372;2023-07-30T08:01:10;12.73;;;4.33;;
18084;SDS011;9169;44.492;11.372;2023-07-30T08:03:39;14.80;;;5.50;;
18084;SDS011;9169;44.492;11.372;2023-07-30T08:06:07;13.37;;;4.80;;
18084;SDS011;9169;44.492;11.372;2023-07-30T08:08:36;13.40;;;4.93;;
18084;SDS011;9169;44.492;11.372;2023-07-30T08:11:06;12.57;;;3.60;;
18084;SDS011;9169;44.492;11.372;2023-07-30T08:13:36;13.40;;;4.30;;
18084;SDS011;9169;44.492;11.372;2023-07-30T08:16:06;15.80;;;4.47;;
18084;SDS011;9169;44.492;11.372;2023-07-30T08:18:38;16.97;;;5.73;;
18084;SDS011;9169;44.492;11.372;2023-07-30T08:21:07;12.53;;;3.83;;
18084;SDS011;9169;44.492;11.372;2023-07-30T08:23:37;11.80;;;3.97;;
18084;SDS011;9169;44.492;11.372;2023-07-30T08:26:05;12.13;;;4.20;;
18084;SDS011;9169;44.492;11.372;2023-07-30T08:28:35;11.60;;;3.47;;
18084;SDS011;9169;44.492;11.372;2023-07-30T08:31:04;9.00;;;2.90;;
18084;SDS011;9169;44.492;11.372;2023-07-30T08:33:33;11.10;;;3.40;;
18084;SDS011;9169;44.492;11.372;2023-07-30T08:36:02;10.20;;;3.37;;
18084;SDS011;9169;44.492;11.372;2023-07-30T08:38:31;9.93;;;3.10;;
18084;SDS011;9169;44.492;11.372;2023-07-30T08:41:00;11.50;;;3.60;;
18084;SDS011;9169;44.492;11.372;2023-07-30T08:43:29;10.77;;;3.47;;
18084;SDS011;9169;44.492;11.372;2023-07-30T08:46:00;10.93;;;3.50;;
18084;SDS011;9169;44.492;11.372;2023-07-30T08:48:29;11.07;;;4.20;;
18084;SDS011;9169;44.492;11.372;2023-07-30T08:50:58;12.10;;;3.17;;
18084;SDS011;9169;44.492;11.372;2023-07-30T08:53:27;8.60;;;3.03;;
18084;SDS011;9169;44.492;11.372;2023-07-30T08:55:56;9.43;;;3.27;;
18084;SDS011;9169;44.492;11.372;2023-07-30T08:58:26;10.50;;;3.07;;
18084;SDS011;9169;44.492;11.372;2023-07-30T09:00:55;8.50;;;2.80;;
18084;SDS011;9169;44.492;11.372;2023-07-30T09:03:27;15.57;;;3.10;;
18084;SDS011;9169;44.492;11.372;2023-07-30T09:05:56;9.10;;;3.30;;
18084;SDS011;9169;44.492;11.372;2023-07-30T09:08:25;11.73;;;3.60;;
18084;SDS011;9169;44.492;11.372;2023-07-30T09:10:53;9.13;;;2.90;;
18084;SDS011;9169;44.492;11.372;2023-07-30T09:13:22;9.87;;;3.03;;
18084;SDS011;9169;44.492;11.372;2023-07-30T09:15:51;9.67;;;3.60;;
18084;SDS011;9169;44.492;11.372;2023-07-30T09:18:19;8.70;;;2.97;;
18084;SDS011;9169;44.492;11.372;2023-07-30T09:20:49;12.10;;;6.33;;
18084;SDS011;9169;44.492;11.372;2023-07-30T09:23:17;11.83;;;3.57;;
18084;SDS011;9169;44.492;11.372;2023-07-30T09:25:47;8.87;;;3.27;;
18084;SDS011;9169;44.492;11.372;2023-07-30T09:28:17;13.27;;;3.30;;
18084;SDS011;9169;44.492;11.372;2023-07-30T09:30:48;9.00;;;3.17;;
18084;SDS011;9169;44.492;11.372;2023-07-30T09:33:18;9.00;;;3.37;;
18084;SDS011;9169;44.492;11.372;2023-07-30T09:35:50;11.17;;;3.03;;
18084;SDS011;9169;44.492;11.372;2023-07-30T09:38:20;8.67;;;3.10;;
18084;SDS011;9169;44.492;11.372;2023-07-30T09:40:49;7.63;;;3.20;;
18084;SDS011;9169;44.492;11.372;2023-07-30T09:43:17;7.53;;;2.60;;
18084;SDS011;9169;44.492;11.372;2023-07-30T09:45:46;8.33;;;3.10;;
18084;SDS011;9169;44.492;11.372;2023-07-30T09:48:15;6.77;;;3.03;;
18084;SDS011;9169;44.492;11.372;2023-07-30T09:50:43;7.27;;;2.83;;
18084;SDS011;9169;44.492;11.372;2023-07-30T09:53:14;9.30;;;3.20;;
18084;SDS011;9169;44.492;11.372;2023-07-30T09:55:44;7.77;;;2.70;;
18084;SDS011;9169;44.492;11.372;2023-07-30T09:58:13;7.27;;;2.90;;
18084;SDS011;9169;44.492;11.372;2023-07-30T10:00:41;11.17;;;3.33;;
18084;SDS011;9169;44.492;11.372;2023-07-30T10:03:12;6.20;;;2.80;;
18084;SDS011;9169;44.492;11.372;2023-07-30T10:05:44;6.93;;;2.97;;
18084;SDS011;9169;44.492;11.372;2023-07-30T10:08:16;6.67;;;2.77;;
18084;SDS011;9169;44.492;11.372;2023-07-30T10:10:49;6.23;;;2.87;;
18084;SDS011;9169;44.492;11.372;2023-07-30T10:13:19;5.80;;;2.87;;
18084;SDS011;9169;44.492;11.372;2023-07-30T10:15:48;5.00;;;2.93;;
18084;SDS011;9169;44.492;11.372;2023-07-30T10:18:18;9.57;;;2.90;;
18084;SDS011;9169;44.492;11.372;2023-07-30T10:20:51;5.20;;;2.83;;
18084;SDS011;9169;44.492;11.372;2023-07-30T10:23:28;5.70;;;2.77;;
18084;SDS011;9169;44.492;11.372;2023-07-30T10:26:04;5.43;;;2.30;;
18084;SDS011;9169;44.492;11.372;2023-07-30T10:28:37;7.70;;;3.13;;
18084;SDS011;9169;44.492;11.372;2023-07-30T10:31:10;4.90;;;2.53;;
18084;SDS011;9169;44.492;11.372;2023-07-30T10:33:43;4.87;;;2.70;;
18084;SDS011;9169;44.492;11.372;2023-07-30T10:36:13;6.30;;;3.10;;
18084;SDS011;9169;44.492;11.372;2023-07-30T10:38:47;10.63;;;2.73;;
18084;SDS011;9169;44.492;11.372;2023-07-30T10:41:15;6.40;;;4.87;;
18084;SDS011;9169;44.492;11.372;2023-07-30T10:43:46;4.10;;;2.80;;
18084;SDS011;9169;44.492;11.372;2023-07-30T10:46:17;6.67;;;3.10;;
18084;SDS011;9169;44.492;11.372;2023-07-30T10:48:46;5.77;;;2.70;;
18084;SDS011;9169;44.492;11.372;2023-07-30T10:51:16;5.97;;;3.00;;
18084;SDS011;9169;44.492;11.372;2023-07-30T10:53:49;5.60;;;2.83;;
18084;SDS011;9169;44.492;11.372;2023-07-30T10:56:21;4.77;;;2.90;;
18084;SDS011;9169;44.492;11.372;2023-07-30T10:58:50;5.20;;;3.07;;
18084;SDS011;9169;44.492;11.372;2023-07-30T11:01:20;4.77;;;3.07;;
18084;SDS011;9169;44.492;11.372;2023-07-30T11:03:51;5.75;;;3.33;;
18084;SDS011;9169;44.492;11.372;2023-07-30T11:06:21;6.38;;;2.85;;
18084;SDS011;9169;44.492;11.372;2023-07-30T11:08:52;5.30;;;3.00;;
18084;SDS011;9169;44.492;11.372;2023-07-30T11:11:20;5.57;;;2.58;;
18084;SDS011;9169;44.492;11.372;2023-07-30T11:13:51;5.18;;;2.47;;
18084;SDS011;9169;44.492;11.372;2023-07-30T11:16:20;5.25;;;2.90;;
18084;SDS011;9169;44.492;11.372;2023-07-30T11:18:48;5.65;;;2.92;;
18084;SDS011;9169;44.492;11.372;2023-07-30T11:21:18;6.22;;;2.63;;
18084;SDS011;9169;44.492;11.372;2023-07-30T11:23:46;4.57;;;2.60;;
18084;SDS011;9169;44.492;11.372;2023-07-30T11:26:19;5.75;;;2.60;;
18084;SDS011;9169;44.492;11.372;2023-07-30T11:28:47;7.78;;;2.72;;
18084;SDS011;9169;44.492;11.372;2023-07-30T11:31:16;9.15;;;3.28;;
18084;SDS011;9169;44.492;11.372;2023-07-30T11:33:48;7.53;;;3.95;;
18084;SDS011;9169;44.492;11.372;2023-07-30T11:36:20;4.10;;;2.80;;
18084;SDS011;9169;44.492;11.372;2023-07-30T11:38:49;6.30;;;3.80;;
18084;SDS011;9169;44.492;11.372;2023-07-30T11:41:22;8.77;;;3.28;;
18084;SDS011;9169;44.492;11.372;2023-07-30T11:43:52;8.68;;;3.10;;
18084;SDS011;9169;44.492;11.372;2023-07-30T11:46:21;7.97;;;3.03;;
18084;SDS011;9169;44.492;11.372;2023-07-30T11:48:51;4.07;;;2.75;;
18084;SDS011;9169;44.492;11.372;2023-07-30T11:51:38;5.00;;;2.90;;
18084;SDS011;9169;44.492;11.372;2023-07-30T11:54:17;3.75;;;2.30;;
18084;SDS011;9169;44.492;11.372;2023-07-30T11:56:53;6.05;;;2.80;;
18084;SDS011;9169;44.492;11.372;2023-07-30T11:59:22;4.07;;;2.60;;
18084;SDS011;9169;44.492;11.372;2023-07-30T12:01:51;6.03;;;3.08;;
18084;SDS011;9169;44.492;11.372;2023-07-30T12:04:20;3.92;;;2.25;;
18084;SDS011;9169;44.492;11.372;2023-07-30T12:06:51;6.57;;;2.80;;
18084;SDS011;9169;44.492;11.372;2023-07-30T12:09:21;7.53;;;2.67;;
18084;SDS011;9169;44.492;11.372;2023-07-30T12:11:54;4.10;;;2.50;;
18084;SDS011;9169;44.492;11.372;2023-07-30T12:14:24;4.00;;;2.50;;
18084;SDS011;9169;44.492;11.372;2023-07-30T12:16:57;5.38;;;2.70;;
18084;SDS011;9169;44.492;11.372;2023-07-30T12:19:26;5.57;;;3.00;;
18084;SDS011;9169;44.492;11.372;2023-07-30T12:21:54;4.78;;;2.80;;
18084;SDS011;9169;44.492;11.372;2023-07-30T12:24:23;7.85;;;2.45;;
18084;SDS011;9169;44.492;11.372;2023-07-30T12:26:51;4.50;;;2.75;;
18084;SDS011;9169;44.492;11.372;2023-07-30T12:29:21;8.38;;;2.88;;
18084;SDS011;9169;44.492;11.372;2023-07-30T12:31:50;4.57;;;2.88;;
18084;SDS011;9169;44.492;11.372;2023-07-30T12:34:20;4.22;;;2.90;;
18084;SDS011;9169;44.492;11.372;2023-07-30T12:36:48;12.48;;;3.22;;
18084;SDS011;9169;44.492;11.372;2023-07-30T12:39:17;7.25;;;3.35;;
18084;SDS011;9169;44.492;11.372;2023-07-30T12:41:46;7.32;;;3.08;;
18084;SDS011;9169;44.492;11.372;2023-07-30T12:44:16;5.35;;;2.70;;
18084;SDS011;9169;44.492;11.372;2023-07-30T12:46:45;5.35;;;2.88;;
18084;SDS011;9169;44.492;11.372;2023-07-30T12:49:13;4.43;;;2.70;;
18084;SDS011;9169;44.492;11.372;2023-07-30T12:51:42;4.00;;;2.67;;
18084;SDS011;9169;44.492;11.372;2023-07-30T12:54:10;4.35;;;2.90;;
18084;SDS011;9169;44.492;11.372;2023-07-30T12:56:39;5.25;;;3.22;;
18084;SDS011;9169;44.492;11.372;2023-07-30T12:59:07;7.00;;;2.90;;
18084;SDS011;9169;44.492;11.372;2023-07-30T13:01:37;5.45;;;2.53;;
18084;SDS011;9169;44.492;11.372;2023-07-30T13:04:07;5.15;;;2.90;;
18084;SDS011;9169;44.492;11.372;2023-07-30T13:06:35;8.00;;;3.10;;
18084;SDS011;9169;44.492;11.372;2023-07-30T13:09:04;5.05;;;3.17;;
18084;SDS011;9169;44.492;11.372;2023-07-30T13:11:32;4.10;;;2.40;;
18084;SDS011;9169;44.492;11.372;2023-07-30T13:14:01;4.40;;;2.75;;
18084;SDS011;9169;44.492;11.372;2023-07-30T13:16:30;4.40;;;2.95;;
18084;SDS011;9169;44.492;11.372;2023-07-30T13:19:00;6.03;;;2.67;;
18084;SDS011;9169;44.492;11.372;2023-07-30T13:21:29;5.93;;;2.80;;
18084;SDS011;9169;44.492;11.372;2023-07-30T13:23:57;6.15;;;2.80;;
18084;SDS011;9169;44.492;11.372;2023-07-30T13:26:43;5.00;;;3.40;;
18084;SDS011;9169;44.492;11.372;2023-07-30T13:29:12;6.38;;;2.75;;
18084;SDS011;9169;44.492;11.372;2023-07-30T13:31:41;3.97;;;2.60;;
18084;SDS011;9169;44.492;11.372;2023-07-30T13:34:10;4.40;;;2.78;;
18084;SDS011;9169;44.492;11.372;2023-07-30T13:36:39;3.80;;;2.50;;
18084;SDS011;9169;44.492;11.372;2023-07-30T13:39:08;4.95;;;2.65;;
18084;SDS011;9169;44.492;11.372;2023-07-30T13:41:36;4.50;;;2.60;;
18084;SDS011;9169;44.492;11.372;2023-07-30T13:44:06;6.97;;;2.67;;
18084;SDS011;9169;44.492;11.372;2023-07-30T13:46:35;6.20;;;3.15;;
18084;SDS011;9169;44.492;11.372;2023-07-30T13:49:04;5.60;;;2.80;;
18084;SDS011;9169;44.492;11.372;2023-07-30T13:51:33;4.65;;;3.03;;
18084;SDS011;9169;44.492;11.372;2023-07-30T13:54:02;5.68;;;3.00;;
18084;SDS011;9169;44.492;11.372;2023-07-30T13:56:31;4.03;;;2.38;;
18084;SDS011;9169;44.492;11.372;2023-07-30T13:59:00;3.90;;;2.50;;
18084;SDS011;9169;44.492;11.372;2023-07-30T14:01:28;4.30;;;2.38;;
18084;SDS011;9169;44.492;11.372;2023-07-30T14:03:57;5.60;;;2.83;;
18084;SDS011;9169;44.492;11.372;2023-07-30T14:06:25;4.85;;;2.70;;
18084;SDS011;9169;44.492;11.372;2023-07-30T14:08:55;5.30;;;2.97;;
18084;SDS011;9169;44.492;11.372;2023-07-30T14:11:26;4.40;;;2.80;;
18084;SDS011;9169;44.492;11.372;2023-07-30T14:13:55;4.63;;;3.25;;
18084;SDS011;9169;44.492;11.372;2023-07-30T14:16:24;4.63;;;2.70;;
18084;SDS011;9169;44.492;11.372;2023-07-30T14:18:53;6.78;;;3.28;;
18084;SDS011;9169;44.492;11.372;2023-07-30T14:21:22;4.78;;;2.80;;
18084;SDS011;9169;44.492;11.372;2023-07-30T14:23:50;4.38;;;2.80;;
18084;SDS011;9169;44.492;11.372;2023-07-30T14:26:20;6.15;;;2.60;;
18084;SDS011;9169;44.492;11.372;2023-07-30T14:28:49;5.35;;;2.42;;
18084;SDS011;9169;44.492;11.372;2023-07-30T14:31:17;6.57;;;3.00;;
18084;SDS011;9169;44.492;11.372;2023-07-30T14:33:46;7.50;;;2.80;;
18084;SDS011;9169;44.492;11.372;2023-07-30T14:36:14;5.93;;;3.40;;
18084;SDS011;9169;44.492;11.372;2023-07-30T14:38:45;5.20;;;2.80;;
18084;SDS011;9169;44.492;11.372;2023-07-30T14:41:13;4.68;;;2.50;;
18084;SDS011;9169;44.492;11.372;2023-07-30T14:43:43;6.82;;;2.90;;
18084;SDS011;9169;44.492;11.372;2023-07-30T14:46:12;7.30;;;2.38;;
18084;SDS011;9169;44.492;11.372;2023-07-30T14:48:41;8.23;;;2.97;;
18084;SDS011;9169;44.492;11.372;2023-07-30T14:51:10;6.82;;;2.60;;
18084;SDS011;9169;44.492;11.372;2023-07-30T14:53:38;4.97;;;2.85;;